KSRB 
Upper Cumberland Regional Airport
Sparta, Tennessee, United States 
ICAOStatusUseage
KSRBOperationalPublic
LatitudeLongitude
36° 3' 24" N85° 31' 48" W
36.056739-85.530108
Local Time (DST-5)UTC (GMT-6)
04-18-2014 08:24 am04-18-2014 13:24
Sunrise-SunsetLocalUTC
Begin Civil Twilight05:35 am10:35
Sunrise06:02 am11:02
Sunset07:20 pm00:20
End Civil Twilight07:46 pm00:46

Current Weather

METARObservedFlight Conditions

KSRB 181255Z AUTO 00000KT 10SM CLR 11/08 A3031

Fri, Apr 18, 2014 @ 12:55 UTC(Z)

(29 Minutes ago)

VFR

(Visual Flight Rules)

WindVisibilityCloudsConditions
Calm
10 statute miles
  • Clear skies
  • No significant weather
TemperaturesReadingsPrecipitation
Current Temp11°C (52°F)
Dewpoint8°C (46°F)
Humidity82%
Altimeter30.31"Hg
Sea Level Pressure1026mb
None Recorded

Additional weather within a 50nm radius of KSRB

Location METAR
KCSV

22.5nm E (106°)

31 minutes ago
KMQY

48.1nm W (267°)

28 minutes ago
VFR VFR    MVFR MVFR    IFR IFR    LIFR LIFR    Unknown Unknown

Previous 24 hour Weather Graphs

  Loading...

CheckWX.com is intended as a tool to help pilots better visualize weather data.   It is not intended as a substitute for an official weather briefing obtained from a Flight Service Station.
CheckWX.com does not meet the FAA requirements for an official pre-flight weather briefing.   Therefore, it's important that pilots still call and obtain an official FSS pre-flight weather briefing.